sensor_id;sensor_type;location;lat;lon;timestamp;P1;P2;P0
45440;PMS5003;31189;38.790;-77.084;2023-09-18T00:01:31;11;9;
45440;PMS5003;31189;38.790;-77.084;2023-09-18T00:03:57;11;11;
45440;PMS5003;31189;38.790;-77.084;2023-09-18T00:06:22;15;14;
45440;PMS5003;31189;38.790;-77.084;2023-09-18T00:08:48;16;14;
45440;PMS5003;31189;38.790;-77.084;2023-09-18T00:11:13;12;10;
45440;PMS5003;31189;38.790;-77.084;2023-09-18T00:13:39;12;12;
45440;PMS5003;31189;38.790;-77.084;2023-09-18T00:16:05;16;12;
45440;PMS5003;31189;38.790;-77.084;2023-09-18T00:18:30;17;12;
45440;PMS5003;31189;38.790;-77.084;2023-09-18T00:20:56;13;11;
45440;PMS5003;31189;38.790;-77.084;2023-09-18T00:23:22;11;11;
45440;PMS5003;31189;38.790;-77.084;2023-09-18T00:25:47;12;12;
45440;PMS5003;31189;38.790;-77.084;2023-09-18T00:28:13;10;10;
45440;PMS5003;31189;38.790;-77.084;2023-09-18T00:30:41;11;11;
45440;PMS5003;31189;38.790;-77.084;2023-09-18T00:33:04;11;10;
45440;PMS5003;31189;38.790;-77.084;2023-09-18T00:35:29;10;10;
45440;PMS5003;31189;38.790;-77.084;2023-09-18T00:37:55;11;10;
45440;PMS5003;31189;38.790;-77.084;2023-09-18T00:40:21;12;12;
45440;PMS5003;31189;38.790;-77.084;2023-09-18T00:42:46;13;12;
45440;PMS5003;31189;38.790;-77.084;2023-09-18T00:45:12;13;13;
45440;PMS5003;31189;38.790;-77.084;2023-09-18T00:47:37;11;11;
45440;PMS5003;31189;38.790;-77.084;2023-09-18T00:50:03;11;11;
45440;PMS5003;31189;38.790;-77.084;2023-09-18T00:52:29;14;11;
45440;PMS5003;31189;38.790;-77.084;2023-09-18T00:54:54;11;11;
45440;PMS5003;31189;38.790;-77.084;2023-09-18T00:57:20;15;13;
45440;PMS5003;31189;38.790;-77.084;2023-09-18T00:59:45;10;10;
45440;PMS5003;31189;38.790;-77.084;2023-09-18T01:02:11;13;11;
45440;PMS5003;31189;38.790;-77.084;2023-09-18T01:04:37;12;12;
45440;PMS5003;31189;38.790;-77.084;2023-09-18T01:07:02;18;13;
45440;PMS5003;31189;38.790;-77.084;2023-09-18T01:09:27;11;10;
45440;PMS5003;31189;38.790;-77.084;2023-09-18T01:11:54;12;11;
45440;PMS5003;31189;38.790;-77.084;2023-09-18T01:14:20;11;10;
45440;PMS5003;31189;38.790;-77.084;2023-09-18T01:16:46;13;11;
45440;PMS5003;31189;38.790;-77.084;2023-09-18T01:19:09;17;12;
45440;PMS5003;31189;38.790;-77.084;2023-09-18T01:21:35;15;12;
45440;PMS5003;31189;38.790;-77.084;2023-09-18T01:24:01;10;10;
45440;PMS5003;31189;38.790;-77.084;2023-09-18T01:26:26;16;15;
45440;PMS5003;31189;38.790;-77.084;2023-09-18T01:28:52;10;10;
45440;PMS5003;31189;38.790;-77.084;2023-09-18T01:31:18;14;12;
45440;PMS5003;31189;38.790;-77.084;2023-09-18T01:33:43;13;11;
45440;PMS5003;31189;38.790;-77.084;2023-09-18T01:36:09;11;11;
45440;PMS5003;31189;38.790;-77.084;2023-09-18T01:38:35;14;12;
45440;PMS5003;31189;38.790;-77.084;2023-09-18T01:41:00;13;13;
45440;PMS5003;31189;38.790;-77.084;2023-09-18T01:43:26;13;11;
45440;PMS5003;31189;38.790;-77.084;2023-09-18T01:45:51;10;10;
45440;PMS5003;31189;38.790;-77.084;2023-09-18T01:48:16;21;13;
45440;PMS5003;31189;38.790;-77.084;2023-09-18T01:50:42;13;11;
45440;PMS5003;31189;38.790;-77.084;2023-09-18T01:53:07;10;10;
45440;PMS5003;31189;38.790;-77.084;2023-09-18T01:55:33;12;11;
45440;PMS5003;31189;38.790;-77.084;2023-09-18T01:57:59;11;10;
45440;PMS5003;31189;38.790;-77.084;2023-09-18T02:00:24;12;10;
45440;PMS5003;31189;38.790;-77.084;2023-09-18T02:02:50;12;10;
45440;PMS5003;31189;38.790;-77.084;2023-09-18T02:05:16;12;11;
45440;PMS5003;31189;38.790;-77.084;2023-09-18T02:07:41;10;10;
45440;PMS5003;31189;38.790;-77.084;2023-09-18T02:10:07;12;10;
45440;PMS5003;31189;38.790;-77.084;2023-09-18T02:12:32;10;10;
45440;PMS5003;31189;38.790;-77.084;2023-09-18T02:14:58;9;9;
45440;PMS5003;31189;38.790;-77.084;2023-09-18T02:17:23;11;9;
45440;PMS5003;31189;38.790;-77.084;2023-09-18T02:19:49;10;10;
45440;PMS5003;31189;38.790;-77.084;2023-09-18T02:22:15;9;9;
45440;PMS5003;31189;38.790;-77.084;2023-09-18T02:24:40;10;9;
45440;PMS5003;31189;38.790;-77.084;2023-09-18T02:27:06;9;9;
45440;PMS5003;31189;38.790;-77.084;2023-09-18T02:29:32;8;8;
45440;PMS5003;31189;38.790;-77.084;2023-09-18T02:31:57;9;9;
45440;PMS5003;31189;38.790;-77.084;2023-09-18T02:34:23;12;11;
45440;PMS5003;31189;38.790;-77.084;2023-09-18T02:36:49;14;10;
45440;PMS5003;31189;38.790;-77.084;2023-09-18T02:39:14;11;8;
45440;PMS5003;31189;38.790;-77.084;2023-09-18T02:41:40;12;10;
45440;PMS5003;31189;38.790;-77.084;2023-09-18T02:44:05;9;8;
45440;PMS5003;31189;38.790;-77.084;2023-09-18T02:46:31;11;9;
45440;PMS5003;31189;38.790;-77.084;2023-09-18T02:48:57;10;9;
45440;PMS5003;31189;38.790;-77.084;2023-09-18T02:51:22;12;11;
45440;PMS5003;31189;38.790;-77.084;2023-09-18T02:53:48;11;9;
45440;PMS5003;31189;38.790;-77.084;2023-09-18T02:56:13;12;8;
45440;PMS5003;31189;38.790;-77.084;2023-09-18T02:58:39;10;8;
45440;PMS5003;31189;38.790;-77.084;2023-09-18T03:01:06;10;9;
45440;PMS5003;31189;38.790;-77.084;2023-09-18T03:03:30;10;9;
45440;PMS5003;31189;38.790;-77.084;2023-09-18T03:06:00;10;9;
45440;PMS5003;31189;38.790;-77.084;2023-09-18T03:08:22;9;8;
45440;PMS5003;31189;38.790;-77.084;2023-09-18T03:10:47;8;8;
45440;PMS5003;31189;38.790;-77.084;2023-09-18T03:13:13;11;8;
45440;PMS5003;31189;38.790;-77.084;2023-09-18T03:15:38;9;7;
45440;PMS5003;31189;38.790;-77.084;2023-09-18T03:18:05;10;9;
45440;PMS5003;31189;38.790;-77.084;2023-09-18T03:20:30;6;6;
45440;PMS5003;31189;38.790;-77.084;2023-09-18T03:22:55;7;7;
45440;PMS5003;31189;38.790;-77.084;2023-09-18T03:25:21;6;6;
45440;PMS5003;31189;38.790;-77.084;2023-09-18T03:27:47;18;7;
45440;PMS5003;31189;38.790;-77.084;2023-09-18T03:30:12;8;8;
45440;PMS5003;31189;38.790;-77.084;2023-09-18T03:32:37;9;8;
45440;PMS5003;31189;38.790;-77.084;2023-09-18T03:35:03;4;4;
45440;PMS5003;31189;38.790;-77.084;2023-09-18T03:37:29;9;8;
45440;PMS5003;31189;38.790;-77.084;2023-09-18T03:39:54;7;7;
45440;PMS5003;31189;38.790;-77.084;2023-09-18T03:42:20;6;6;
45440;PMS5003;31189;38.790;-77.084;2023-09-18T03:44:45;11;8;
45440;PMS5003;31189;38.790;-77.084;2023-09-18T03:47:11;7;7;
45440;PMS5003;31189;38.790;-77.084;2023-09-18T03:49:37;10;8;
45440;PMS5003;31189;38.790;-77.084;2023-09-18T03:52:02;8;7;
45440;PMS5003;31189;38.790;-77.084;2023-09-18T03:54:28;10;9;
45440;PMS5003;31189;38.790;-77.084;2023-09-18T03:56:53;8;6;
45440;PMS5003;31189;38.790;-77.084;2023-09-18T03:59:19;5;5;
45440;PMS5003;31189;38.790;-77.084;2023-09-18T04:01:44;8;7;
45440;PMS5003;31189;38.790;-77.084;2023-09-18T04:04:10;8;6;
45440;PMS5003;31189;38.790;-77.084;2023-09-18T04:06:36;7;7;
45440;PMS5003;31189;38.790;-77.084;2023-09-18T04:09:03;9;7;
45440;PMS5003;31189;38.790;-77.084;2023-09-18T04:11:27;6;4;
45440;PMS5003;31189;38.790;-77.084;2023-09-18T04:13:53;5;5;
45440;PMS5003;31189;38.790;-77.084;2023-09-18T04:16:18;9;8;
45440;PMS5003;31189;38.790;-77.084;2023-09-18T04:18:44;9;8;
45440;PMS5003;31189;38.790;-77.084;2023-09-18T04:21:09;9;8;
45440;PMS5003;31189;38.790;-77.084;2023-09-18T04:23:35;7;7;
45440;PMS5003;31189;38.790;-77.084;2023-09-18T04:26:01;6;6;
45440;PMS5003;31189;38.790;-77.084;2023-09-18T04:28:27;8;8;
45440;PMS5003;31189;38.790;-77.084;2023-09-18T04:30:52;13;6;
45440;PMS5003;31189;38.790;-77.084;2023-09-18T04:33:17;5;5;
45440;PMS5003;31189;38.790;-77.084;2023-09-18T04:35:43;9;7;
45440;PMS5003;31189;38.790;-77.084;2023-09-18T04:38:08;8;8;
45440;PMS5003;31189;38.790;-77.084;2023-09-18T04:40:34;6;6;
45440;PMS5003;31189;38.790;-77.084;2023-09-18T04:42:59;7;5;
45440;PMS5003;31189;38.790;-77.084;2023-09-18T04:45:25;8;6;
45440;PMS5003;31189;38.790;-77.084;2023-09-18T04:47:51;8;7;
45440;PMS5003;31189;38.790;-77.084;2023-09-18T04:50:16;7;7;
45440;PMS5003;31189;38.790;-77.084;2023-09-18T04:52:42;9;9;
45440;PMS5003;31189;38.790;-77.084;2023-09-18T04:55:08;7;7;
45440;PMS5003;31189;38.790;-77.084;2023-09-18T04:57:33;9;8;
45440;PMS5003;31189;38.790;-77.084;2023-09-18T04:59:59;8;7;
45440;PMS5003;31189;38.790;-77.084;2023-09-18T05:02:24;7;7;
45440;PMS5003;31189;38.790;-77.084;2023-09-18T05:04:50;6;6;
45440;PMS5003;31189;38.790;-77.084;2023-09-18T05:07:16;8;7;
45440;PMS5003;31189;38.790;-77.084;2023-09-18T05:09:41;9;6;
45440;PMS5003;31189;38.790;-77.084;2023-09-18T05:12:08;7;7;
45440;PMS5003;31189;38.790;-77.084;2023-09-18T05:14:32;7;7;
45440;PMS5003;31189;38.790;-77.084;2023-09-18T05:16:58;7;7;
45440;PMS5003;31189;38.790;-77.084;2023-09-18T05:19:24;8;8;
45440;PMS5003;31189;38.790;-77.084;2023-09-18T05:21:49;7;7;
45440;PMS5003;31189;38.790;-77.084;2023-09-18T05:24:15;7;7;
45440;PMS5003;31189;38.790;-77.084;2023-09-18T05:26:41;8;7;
45440;PMS5003;31189;38.790;-77.084;2023-09-18T05:29:06;9;7;
45440;PMS5003;31189;38.790;-77.084;2023-09-18T05:31:32;6;6;
45440;PMS5003;31189;38.790;-77.084;2023-09-18T05:33:58;7;7;
45440;PMS5003;31189;38.790;-77.084;2023-09-18T05:36:23;7;5;
45440;PMS5003;31189;38.790;-77.084;2023-09-18T05:38:49;8;7;
45440;PMS5003;31189;38.790;-77.084;2023-09-18T05:41:14;10;8;
45440;PMS5003;31189;38.790;-77.084;2023-09-18T05:43:40;7;7;
45440;PMS5003;31189;38.790;-77.084;2023-09-18T05:46:06;6;6;
45440;PMS5003;31189;38.790;-77.084;2023-09-18T05:48:31;7;6;
45440;PMS5003;31189;38.790;-77.084;2023-09-18T05:50:57;7;6;
45440;PMS5003;31189;38.790;-77.084;2023-09-18T05:53:22;7;7;
45440;PMS5003;31189;38.790;-77.084;2023-09-18T05:55:48;8;6;
45440;PMS5003;31189;38.790;-77.084;2023-09-18T05:58:13;7;7;
45440;PMS5003;31189;38.790;-77.084;2023-09-18T06:00:39;8;8;
45440;PMS5003;31189;38.790;-77.084;2023-09-18T06:03:05;7;7;
45440;PMS5003;31189;38.790;-77.084;2023-09-18T06:05:30;8;8;
45440;PMS5003;31189;38.790;-77.084;2023-09-18T06:07:56;6;6;
45440;PMS5003;31189;38.790;-77.084;2023-09-18T06:10:21;9;6;
45440;PMS5003;31189;38.790;-77.084;2023-09-18T06:12:47;7;6;
45440;PMS5003;31189;38.790;-77.084;2023-09-18T06:15:12;7;6;
45440;PMS5003;31189;38.790;-77.084;2023-09-18T06:17:38;8;8;
45440;PMS5003;31189;38.790;-77.084;2023-09-18T06:20:04;6;6;
45440;PMS5003;31189;38.790;-77.084;2023-09-18T06:22:29;7;7;
45440;PMS5003;31189;38.790;-77.084;2023-09-18T06:24:55;7;6;
45440;PMS5003;31189;38.790;-77.084;2023-09-18T06:27:20;7;7;
45440;PMS5003;31189;38.790;-77.084;2023-09-18T06:29:46;9;8;
45440;PMS5003;31189;38.790;-77.084;2023-09-18T06:32:12;7;5;
45440;PMS5003;31189;38.790;-77.084;2023-09-18T06:34:37;7;7;
45440;PMS5003;31189;38.790;-77.084;2023-09-18T06:37:03;6;6;
45440;PMS5003;31189;38.790;-77.084;2023-09-18T06:39:28;7;7;
45440;PMS5003;31189;38.790;-77.084;2023-09-18T06:41:54;8;7;
45440;PMS5003;31189;38.790;-77.084;2023-09-18T06:44:20;5;5;
45440;PMS5003;31189;38.790;-77.084;2023-09-18T06:46:45;6;6;
45440;PMS5003;31189;38.790;-77.084;2023-09-18T06:49:11;6;6;
45440;PMS5003;31189;38.790;-77.084;2023-09-18T06:51:36;6;6;
45440;PMS5003;31189;38.790;-77.084;2023-09-18T06:54:02;6;6;
45440;PMS5003;31189;38.790;-77.084;2023-09-18T06:56:28;5;5;
45440;PMS5003;31189;38.790;-77.084;2023-09-18T06:58:53;7;6;
45440;PMS5003;31189;38.790;-77.084;2023-09-18T07:01:19;7;7;
45440;PMS5003;31189;38.790;-77.084;2023-09-18T07:03:44;7;7;
45440;PMS5003;31189;38.790;-77.084;2023-09-18T07:06:10;6;6;
45440;PMS5003;31189;38.790;-77.084;2023-09-18T07:08:36;9;7;
45440;PMS5003;31189;38.790;-77.084;2023-09-18T07:11:01;6;6;
45440;PMS5003;31189;38.790;-77.084;2023-09-18T07:13:27;7;7;
45440;PMS5003;31189;38.790;-77.084;2023-09-18T07:15:52;7;7;
45440;PMS5003;31189;38.790;-77.084;2023-09-18T07:18:18;7;6;
45440;PMS5003;31189;38.790;-77.084;2023-09-18T07:20:44;6;6;
45440;PMS5003;31189;38.790;-77.084;2023-09-18T07:23:09;8;8;
45440;PMS5003;31189;38.790;-77.084;2023-09-18T07:25:35;5;5;
45440;PMS5003;31189;38.790;-77.084;2023-09-18T07:28:00;5;5;
45440;PMS5003;31189;38.790;-77.084;2023-09-18T07:30:26;8;8;
45440;PMS5003;31189;38.790;-77.084;2023-09-18T07:32:52;8;7;
45440;PMS5003;31189;38.790;-77.084;2023-09-18T07:35:17;8;7;
45440;PMS5003;31189;38.790;-77.084;2023-09-18T07:37:43;7;7;
45440;PMS5003;31189;38.790;-77.084;2023-09-18T07:40:09;7;7;
45440;PMS5003;31189;38.790;-77.084;2023-09-18T07:42:34;5;5;
45440;PMS5003;31189;38.790;-77.084;2023-09-18T07:45:00;9;7;
45440;PMS5003;31189;38.790;-77.084;2023-09-18T07:47:25;8;8;
45440;PMS5003;31189;38.790;-77.084;2023-09-18T07:49:51;7;7;
45440;PMS5003;31189;38.790;-77.084;2023-09-18T07:52:17;8;8;
45440;PMS5003;31189;38.790;-77.084;2023-09-18T07:54:42;6;6;
45440;PMS5003;31189;38.790;-77.084;2023-09-18T07:57:07;12;9;
45440;PMS5003;31189;38.790;-77.084;2023-09-18T07:59:33;10;10;
45440;PMS5003;31189;38.790;-77.084;2023-09-18T08:01:59;12;8;
45440;PMS5003;31189;38.790;-77.084;2023-09-18T08:04:24;9;7;
45440;PMS5003;31189;38.790;-77.084;2023-09-18T08:06:50;9;9;
45440;PMS5003;31189;38.790;-77.084;2023-09-18T08:09:16;7;7;
45440;PMS5003;31189;38.790;-77.084;2023-09-18T08:11:41;8;7;
45440;PMS5003;31189;38.790;-77.084;2023-09-18T08:14:07;8;7;
45440;PMS5003;31189;38.790;-77.084;2023-09-18T08:16:32;11;9;
45440;PMS5003;31189;38.790;-77.084;2023-09-18T08:18:58;8;7;
45440;PMS5003;31189;38.790;-77.084;2023-09-18T08:21:24;9;9;
45440;PMS5003;31189;38.790;-77.084;2023-09-18T08:23:49;9;9;
45440;PMS5003;31189;38.790;-77.084;2023-09-18T08:26:15;7;7;
45440;PMS5003;31189;38.790;-77.084;2023-09-18T08:28:41;10;10;
45440;PMS5003;31189;38.790;-77.084;2023-09-18T08:31:06;11;8;
45440;PMS5003;31189;38.790;-77.084;2023-09-18T08:33:32;9;9;
45440;PMS5003;31189;38.790;-77.084;2023-09-18T08:35:57;7;7;
45440;PMS5003;31189;38.790;-77.084;2023-09-18T08:38:23;9;8;
45440;PMS5003;31189;38.790;-77.084;2023-09-18T08:40:48;9;9;
45440;PMS5003;31189;38.790;-77.084;2023-09-18T08:43:14;12;11;
45440;PMS5003;31189;38.790;-77.084;2023-09-18T08:45:41;9;9;
45440;PMS5003;31189;38.790;-77.084;2023-09-18T08:48:05;9;8;
45440;PMS5003;31189;38.790;-77.084;2023-09-18T08:50:31;8;8;
45440;PMS5003;31189;38.790;-77.084;2023-09-18T08:52:56;8;7;
45440;PMS5003;31189;38.790;-77.084;2023-09-18T08:55:22;9;6;
45440;PMS5003;31189;38.790;-77.084;2023-09-18T08:57:48;6;6;
45440;PMS5003;31189;38.790;-77.084;2023-09-18T09:00:13;6;4;
45440;PMS5003;31189;38.790;-77.084;2023-09-18T09:02:39;9;5;
45440;PMS5003;31189;38.790;-77.084;2023-09-18T09:05:05;5;5;
45440;PMS5003;31189;38.790;-77.084;2023-09-18T09:07:30;8;5;
45440;PMS5003;31189;38.790;-77.084;2023-09-18T09:09:56;4;4;
45440;PMS5003;31189;38.790;-77.084;2023-09-18T09:17:17;3;3;
45440;PMS5003;31189;38.790;-77.084;2023-09-18T09:19:38;2;2;
45440;PMS5003;31189;38.790;-77.084;2023-09-18T09:22:04;4;3;
45440;PMS5003;31189;38.790;-77.084;2023-09-18T09:24:36;1;1;
45440;PMS5003;31189;38.790;-77.084;2023-09-18T09:27:00;1;1;
45440;PMS5003;31189;38.790;-77.084;2023-09-18T09:29:21;3;3;
45440;PMS5003;31189;38.790;-77.084;2023-09-18T09:31:47;1;1;
45440;PMS5003;31189;38.790;-77.084;2023-09-18T09:34:12;4;4;
45440;PMS5003;31189;38.790;-77.084;2023-09-18T09:39:03;2;2;
45440;PMS5003;31189;38.790;-77.084;2023-09-18T09:41:29;1;1;
45440;PMS5003;31189;38.790;-77.084;2023-09-18T09:43:54;2;2;
45440;PMS5003;31189;38.790;-77.084;2023-09-18T09:46:21;0;0;
45440;PMS5003;31189;38.790;-77.084;2023-09-18T09:48:58;3;3;
45440;PMS5003;31189;38.790;-77.084;2023-09-18T09:51:15;1;1;
45440;PMS5003;31189;38.790;-77.084;2023-09-18T09:53:42;1;1;
45440;PMS5003;31189;38.790;-77.084;2023-09-18T09:56:03;2;2;
45440;PMS5003;31189;38.790;-77.084;2023-09-18T09:58:28;0;0;
45440;PMS5003;31189;38.790;-77.084;2023-09-18T10:00:54;0;0;
45440;PMS5003;31189;38.790;-77.084;2023-09-18T10:03:20;1;1;
45440;PMS5003;31189;38.790;-77.084;2023-09-18T10:05:45;1;1;
45440;PMS5003;31189;38.790;-77.084;2023-09-18T10:08:12;2;2;
45440;PMS5003;31189;38.790;-77.084;2023-09-18T10:10:37;0;0;
45440;PMS5003;31189;38.790;-77.084;2023-09-18T10:13:06;2;2;
45440;PMS5003;31189;38.790;-77.084;2023-09-18T10:15:28;2;2;
45440;PMS5003;31189;38.790;-77.084;2023-09-18T10:17:53;1;1;
45440;PMS5003;31189;38.790;-77.084;2023-09-18T10:20:19;1;1;
45440;PMS5003;31189;38.790;-77.084;2023-09-18T10:22:45;4;3;
45440;PMS5003;31189;38.790;-77.084;2023-09-18T10:25:11;1;1;
45440;PMS5003;31189;38.790;-77.084;2023-09-18T10:27:36;0;0;
45440;PMS5003;31189;38.790;-77.084;2023-09-18T10:30:01;3;1;
45440;PMS5003;31189;38.790;-77.084;2023-09-18T10:32:27;0;0;
45440;PMS5003;31189;38.790;-77.084;2023-09-18T10:34:52;1;1;
45440;PMS5003;31189;38.790;-77.084;2023-09-18T10:37:18;3;3;
45440;PMS5003;31189;38.790;-77.084;2023-09-18T10:39:43;1;1;
45440;PMS5003;31189;38.790;-77.084;2023-09-18T10:42:09;1;1;
45440;PMS5003;31189;38.790;-77.084;2023-09-18T10:44:35;2;2;
45440;PMS5003;31189;38.790;-77.084;2023-09-18T10:47:01;3;3;
45440;PMS5003;31189;38.790;-77.084;2023-09-18T10:49:26;2;1;
45440;PMS5003;31189;38.790;-77.084;2023-09-18T10:54:20;3;3;
45440;PMS5003;31189;38.790;-77.084;2023-09-18T10:56:43;3;3;
45440;PMS5003;31189;38.790;-77.084;2023-09-18T10:59:08;6;3;
45440;PMS5003;31189;38.790;-77.084;2023-09-18T11:01:34;3;3;
45440;PMS5003;31189;38.790;-77.084;2023-09-18T11:04:00;3;3;
45440;PMS5003;31189;38.790;-77.084;2023-09-18T11:06:25;3;3;
45440;PMS5003;31189;38.790;-77.084;2023-09-18T11:08:51;2;2;
45440;PMS5003;31189;38.790;-77.084;2023-09-18T11:11:18;3;3;
45440;PMS5003;31189;38.790;-77.084;2023-09-18T11:13:43;2;2;
45440;PMS5003;31189;38.790;-77.084;2023-09-18T11:16:15;3;3;
45440;PMS5003;31189;38.790;-77.084;2023-09-18T11:18:33;2;2;
45440;PMS5003;31189;38.790;-77.084;2023-09-18T11:21:07;1;1;
45440;PMS5003;31189;38.790;-77.084;2023-09-18T11:23:24;2;2;
45440;PMS5003;31189;38.790;-77.084;2023-09-18T11:25:50;2;2;
45440;PMS5003;31189;38.790;-77.084;2023-09-18T11:28:16;4;3;
45440;PMS5003;31189;38.790;-77.084;2023-09-18T11:33:07;3;1;
45440;PMS5003;31189;38.790;-77.084;2023-09-18T11:35:32;3;3;
45440;PMS5003;31189;38.790;-77.084;2023-09-18T11:38:03;4;3;
45440;PMS5003;31189;38.790;-77.084;2023-09-18T11:40:28;4;2;
45440;PMS5003;31189;38.790;-77.084;2023-09-18T11:45:16;3;2;
45440;PMS5003;31189;38.790;-77.084;2023-09-18T11:47:40;4;3;
45440;PMS5003;31189;38.790;-77.084;2023-09-18T11:50:06;5;3;
45440;PMS5003;31189;38.790;-77.084;2023-09-18T11:52:31;3;3;
45440;PMS5003;31189;38.790;-77.084;2023-09-18T11:54:57;3;2;
45440;PMS5003;31189;38.790;-77.084;2023-09-18T11:57:23;4;2;
45440;PMS5003;31189;38.790;-77.084;2023-09-18T11:59:48;3;2;
45440;PMS5003;31189;38.790;-77.084;2023-09-18T12:02:17;3;3;
45440;PMS5003;31189;38.790;-77.084;2023-09-18T12:04:39;3;2;
45440;PMS5003;31189;38.790;-77.084;2023-09-18T12:07:05;4;3;
45440;PMS5003;31189;38.790;-77.084;2023-09-18T12:09:31;1;1;
45440;PMS5003;31189;38.790;-77.084;2023-09-18T12:11:57;3;3;
45440;PMS5003;31189;38.790;-77.084;2023-09-18T12:14:22;3;2;
45440;PMS5003;31189;38.790;-77.084;2023-09-18T12:16:48;3;2;
45440;PMS5003;31189;38.790;-77.084;2023-09-18T12:19:16;1;1;
45440;PMS5003;31189;38.790;-77.084;2023-09-18T12:21:40;2;2;
45440;PMS5003;31189;38.790;-77.084;2023-09-18T12:24:04;2;2;
45440;PMS5003;31189;38.790;-77.084;2023-09-18T12:26:30;4;2;
45440;PMS5003;31189;38.790;-77.084;2023-09-18T12:28:56;3;3;
45440;PMS5003;31189;38.790;-77.084;2023-09-18T12:31:21;4;2;
45440;PMS5003;31189;38.790;-77.084;2023-09-18T12:33:47;3;3;
45440;PMS5003;31189;38.790;-77.084;2023-09-18T12:36:12;3;3;
45440;PMS5003;31189;38.790;-77.084;2023-09-18T12:38:38;3;3;
45440;PMS5003;31189;38.790;-77.084;2023-09-18T12:41:04;6;4;
45440;PMS5003;31189;38.790;-77.084;2023-09-18T12:43:29;5;3;
45440;PMS5003;31189;38.790;-77.084;2023-09-18T12:45:55;3;3;
45440;PMS5003;31189;38.790;-77.084;2023-09-18T12:48:20;5;3;
45440;PMS5003;31189;38.790;-77.084;2023-09-18T12:50:46;4;4;
45440;PMS5003;31189;38.790;-77.084;2023-09-18T12:53:12;4;4;
45440;PMS5003;31189;38.790;-77.084;2023-09-18T12:55:38;3;3;
45440;PMS5003;31189;38.790;-77.084;2023-09-18T12:58:03;4;4;
45440;PMS5003;31189;38.790;-77.084;2023-09-18T13:00:28;6;3;
45440;PMS5003;31189;38.790;-77.084;2023-09-18T13:02:54;3;3;
45440;PMS5003;31189;38.790;-77.084;2023-09-18T13:05:20;4;4;
45440;PMS5003;31189;38.790;-77.084;2023-09-18T13:07:46;3;3;
45440;PMS5003;31189;38.790;-77.084;2023-09-18T13:10:11;3;3;
45440;PMS5003;31189;38.790;-77.084;2023-09-18T13:12:42;4;4;
45440;PMS5003;31189;38.790;-77.084;2023-09-18T13:15:03;4;4;
45440;PMS5003;31189;38.790;-77.084;2023-09-18T13:17:28;2;2;
45440;PMS5003;31189;38.790;-77.084;2023-09-18T13:19:53;8;5;
45440;PMS5003;31189;38.790;-77.084;2023-09-18T13:22:23;5;5;
45440;PMS5003;31189;38.790;-77.084;2023-09-18T13:24:45;4;4;
45440;PMS5003;31189;38.790;-77.084;2023-09-18T13:27:10;5;4;
45440;PMS5003;31189;38.790;-77.084;2023-09-18T13:29:36;5;5;
45440;PMS5003;31189;38.790;-77.084;2023-09-18T13:32:01;6;4;
45440;PMS5003;31189;38.790;-77.084;2023-09-18T13:34:32;6;5;
45440;PMS5003;31189;38.790;-77.084;2023-09-18T13:36:54;6;4;
45440;PMS5003;31189;38.790;-77.084;2023-09-18T13:39:18;5;4;
45440;PMS5003;31189;38.790;-77.084;2023-09-18T13:41:43;5;4;
45440;PMS5003;31189;38.790;-77.084;2023-09-18T13:44:14;4;4;
45440;PMS5003;31189;38.790;-77.084;2023-09-18T13:46:35;6;5;
45440;PMS5003;31189;38.790;-77.084;2023-09-18T13:49:05;4;3;
45440;PMS5003;31189;38.790;-77.084;2023-09-18T13:51:26;6;5;
45440;PMS5003;31189;38.790;-77.084;2023-09-18T13:53:52;3;3;
45440;PMS5003;31189;38.790;-77.084;2023-09-18T13:56:17;6;4;
45440;PMS5003;31189;38.790;-77.084;2023-09-18T13:58:43;6;6;
45440;PMS5003;31189;38.790;-77.084;2023-09-18T14:01:14;6;6;
45440;PMS5003;31189;38.790;-77.084;2023-09-18T14:03:34;3;3;
45440;PMS5003;31189;38.790;-77.084;2023-09-18T14:06:00;4;4;
45440;PMS5003;31189;38.790;-77.084;2023-09-18T14:08:25;4;4;
45440;PMS5003;31189;38.790;-77.084;2023-09-18T14:10:51;6;6;
45440;PMS5003;31189;38.790;-77.084;2023-09-18T14:13:17;3;3;
45440;PMS5003;31189;38.790;-77.084;2023-09-18T14:15:42;5;4;
45440;PMS5003;31189;38.790;-77.084;2023-09-18T14:18:08;4;4;
45440;PMS5003;31189;38.790;-77.084;2023-09-18T14:20:33;6;4;
45440;PMS5003;31189;38.790;-77.084;2023-09-18T14:22:59;6;5;
45440;PMS5003;31189;38.790;-77.084;2023-09-18T14:25:25;5;5;
45440;PMS5003;31189;38.790;-77.084;2023-09-18T14:27:50;4;4;
45440;PMS5003;31189;38.790;-77.084;2023-09-18T14:30:21;8;6;
45440;PMS5003;31189;38.790;-77.084;2023-09-18T14:32:42;4;4;
45440;PMS5003;31189;38.790;-77.084;2023-09-18T14:35:07;9;7;
45440;PMS5003;31189;38.790;-77.084;2023-09-18T14:37:33;6;6;
45440;PMS5003;31189;38.790;-77.084;2023-09-18T14:39:58;6;6;
45440;PMS5003;31189;38.790;-77.084;2023-09-18T14:42:24;5;5;
45440;PMS5003;31189;38.790;-77.084;2023-09-18T14:44:50;8;6;
45440;PMS5003;31189;38.790;-77.084;2023-09-18T14:47:15;8;5;
45440;PMS5003;31189;38.790;-77.084;2023-09-18T14:49:41;6;6;
45440;PMS5003;31189;38.790;-77.084;2023-09-18T14:52:06;8;6;
45440;PMS5003;31189;38.790;-77.084;2023-09-18T14:54:32;9;7;
45440;PMS5003;31189;38.790;-77.084;2023-09-18T14:56:58;11;7;
45440;PMS5003;31189;38.790;-77.084;2023-09-18T14:59:23;7;7;
45440;PMS5003;31189;38.790;-77.084;2023-09-18T15:01:49;7;7;
45440;PMS5003;31189;38.790;-77.084;2023-09-18T15:04:15;6;6;
45440;PMS5003;31189;38.790;-77.084;2023-09-18T15:06:40;6;6;
45440;PMS5003;31189;38.790;-77.084;2023-09-18T15:09:06;5;5;
45440;PMS5003;31189;38.790;-77.084;2023-09-18T15:11:32;6;6;
45440;PMS5003;31189;38.790;-77.084;2023-09-18T15:13:57;6;4;
45440;PMS5003;31189;38.790;-77.084;2023-09-18T15:16:23;10;9;
45440;PMS5003;31189;38.790;-77.084;2023-09-18T15:18:48;7;6;
45440;PMS5003;31189;38.790;-77.084;2023-09-18T15:21:14;8;8;
45440;PMS5003;31189;38.790;-77.084;2023-09-18T15:23:40;8;7;
45440;PMS5003;31189;38.790;-77.084;2023-09-18T15:26:05;8;8;
45440;PMS5003;31189;38.790;-77.084;2023-09-18T15:28:31;8;8;
45440;PMS5003;31189;38.790;-77.084;2023-09-18T15:30:56;6;5;
45440;PMS5003;31189;38.790;-77.084;2023-09-18T15:33:22;11;9;
45440;PMS5003;31189;38.790;-77.084;2023-09-18T15:35:48;6;6;
45440;PMS5003;31189;38.790;-77.084;2023-09-18T15:38:14;8;8;
45440;PMS5003;31189;38.790;-77.084;2023-09-18T15:40:39;7;7;
45440;PMS5003;31189;38.790;-77.084;2023-09-18T15:43:05;11;9;
45440;PMS5003;31189;38.790;-77.084;2023-09-18T15:45:30;9;7;
45440;PMS5003;31189;38.790;-77.084;2023-09-18T15:47:56;9;9;
45440;PMS5003;31189;38.790;-77.084;2023-09-18T15:50:22;8;8;
45440;PMS5003;31189;38.790;-77.084;2023-09-18T15:52:47;10;8;
45440;PMS5003;31189;38.790;-77.084;2023-09-18T15:55:13;7;7;
45440;PMS5003;31189;38.790;-77.084;2023-09-18T15:57:38;8;8;
45440;PMS5003;31189;38.790;-77.084;2023-09-18T16:00:05;6;6;
45440;PMS5003;31189;38.790;-77.084;2023-09-18T16:02:30;11;8;
45440;PMS5003;31189;38.790;-77.084;2023-09-18T16:04:56;9;9;
45440;PMS5003;31189;38.790;-77.084;2023-09-18T16:07:21;12;10;
45440;PMS5003;31189;38.790;-77.084;2023-09-18T16:09:46;8;8;
45440;PMS5003;31189;38.790;-77.084;2023-09-18T16:12:12;10;9;
45440;PMS5003;31189;38.790;-77.084;2023-09-18T16:14:38;8;8;